createdAt,value
2023-02-04T00:00:56.792Z,84.53
2023-02-04T00:03:23.296Z,86.08
2023-02-04T00:05:50.467Z,88.42
2023-02-04T00:08:17.043Z,89.60
2023-02-04T00:10:43.516Z,90.20
2023-02-04T00:13:10.072Z,88.29
2023-02-04T00:15:36.754Z,84.84
2023-02-04T00:18:03.956Z,86.67
2023-02-04T00:20:30.718Z,86.66
2023-02-04T00:22:57.620Z,87.02
2023-02-04T00:25:24.235Z,87.41
2023-02-04T00:27:54.022Z,88.71
2023-02-04T00:30:23.603Z,89.89
2023-02-04T00:32:54.870Z,90.84
2023-02-04T00:35:22.388Z,91.91
2023-02-04T00:37:51.580Z,91.08
2023-02-04T00:40:18.189Z,91.38
2023-02-04T00:42:44.763Z,90.77
2023-02-04T00:45:12.500Z,89.68
2023-02-04T00:47:39.070Z,88.75
2023-02-04T00:50:06.151Z,89.50
2023-02-04T00:52:33.077Z,89.55
2023-02-04T00:54:59.519Z,90.76
2023-02-04T00:57:25.951Z,90.99
2023-02-04T00:59:55.915Z,91.29
2023-02-04T01:02:26.005Z,92.16
2023-02-04T01:04:53.019Z,93.72
2023-02-04T01:07:19.576Z,91.07
2023-02-04T01:09:46.087Z,90.83
2023-02-04T01:12:12.503Z,90.94
2023-02-04T01:14:38.986Z,91.05
2023-02-04T01:17:05.716Z,91.77
2023-02-04T01:19:32.324Z,92.31
2023-02-04T01:21:58.817Z,93.34
2023-02-04T01:24:25.249Z,93.80
2023-02-04T01:26:54.096Z,93.63
2023-02-04T01:29:20.572Z,93.90
2023-02-04T01:31:47.095Z,94.35
2023-02-04T01:34:13.552Z,94.28
2023-02-04T01:36:40.026Z,94.71
2023-02-04T01:39:06.490Z,93.59
2023-02-04T01:41:33.870Z,92.96
2023-02-04T01:44:00.486Z,93.03
2023-02-04T01:46:27.054Z,91.59
2023-02-04T01:48:57.986Z,92.38
2023-02-04T01:51:30.370Z,93.78
2023-02-04T01:53:56.928Z,93.81
2023-02-04T01:56:26.779Z,93.28
2023-02-04T01:58:56.200Z,92.87
2023-02-04T02:01:38.413Z,91.83
2023-02-04T02:04:05.880Z,93.44
2023-02-04T02:06:32.414Z,93.77
2023-02-04T02:08:58.986Z,94.65
2023-02-04T02:11:28.958Z,94.77
2023-02-04T02:13:58.507Z,94.63
2023-02-04T02:16:29.830Z,95.02
2023-02-04T02:19:00.045Z,93.43
2023-02-04T02:21:42.465Z,92.92
2023-02-04T02:24:30.980Z,94.16
2023-02-04T02:27:00.224Z,94.79
2023-02-04T02:29:29.697Z,95.96
2023-02-04T02:32:00.211Z,96.42
2023-02-04T02:34:31.103Z,96.21
2023-02-04T02:37:02.212Z,93.96
2023-02-04T02:39:29.188Z,94.02
2023-02-04T02:41:59.781Z,95.39
2023-02-04T02:44:30.819Z,96.14
2023-02-04T02:47:01.410Z,96.17
2023-02-04T02:49:32.813Z,96.19
2023-02-04T02:51:59.412Z,96.73
2023-02-04T02:54:31.155Z,96.21
2023-02-04T02:57:00.798Z,95.78
2023-02-04T02:59:29.184Z,94.54
2023-02-04T03:02:01.353Z,93.96
2023-02-04T03:04:35.737Z,94.82
2023-02-04T03:07:02.335Z,93.87
2023-02-04T03:09:29.995Z,94.28
2023-02-04T03:11:56.643Z,95.03
2023-02-04T03:14:25.253Z,95.41
2023-02-04T03:16:54.508Z,95.85
2023-02-04T03:19:21.103Z,96.85
2023-02-04T03:21:47.678Z,94.87
2023-02-04T03:24:14.389Z,93.63
2023-02-04T03:26:40.892Z,94.68
2023-02-04T03:29:09.889Z,95.39
2023-02-04T03:31:37.964Z,94.97
2023-02-04T03:34:04.727Z,94.09
2023-02-04T03:36:31.160Z,95.04
2023-02-04T03:38:57.679Z,92.98
2023-02-04T03:41:24.274Z,92.07
2023-02-04T03:43:50.748Z,93.42
2023-02-04T03:46:17.251Z,94.17
2023-02-04T03:48:43.716Z,95.48
2023-02-04T03:51:10.132Z,95.60
2023-02-04T03:53:36.670Z,96.01
2023-02-04T03:56:03.308Z,96.19
2023-02-04T03:58:31.810Z,97.04
2023-02-04T04:00:58.501Z,97.20
2023-02-04T04:03:25.050Z,96.70
2023-02-04T04:05:51.533Z,97.85
2023-02-04T04:08:18.025Z,97.92
2023-02-04T04:10:44.610Z,96.99
2023-02-04T04:13:11.089Z,95.48
2023-02-04T04:15:37.578Z,95.70
2023-02-04T04:18:04.699Z,96.03
2023-02-04T04:20:33.881Z,96.25
2023-02-04T04:23:00.603Z,96.55
2023-02-04T04:25:27.043Z,97.32
2023-02-04T04:27:53.602Z,98.04
2023-02-04T04:30:20.166Z,97.70
2023-02-04T04:32:46.664Z,97.76
2023-02-04T04:35:13.139Z,96.71
2023-02-04T04:37:39.603Z,97.21
2023-02-04T04:40:06.516Z,98.05
2023-02-04T04:42:36.777Z,97.30
2023-02-04T04:45:09.225Z,97.19
2023-02-04T04:47:35.724Z,97.01
2023-02-04T04:50:04.730Z,98.22
2023-02-04T04:52:31.248Z,99.52
2023-02-04T04:54:57.735Z,100.00
2023-02-04T04:57:24.196Z,99.11
2023-02-04T04:59:50.759Z,99.22
2023-02-04T05:02:17.264Z,100.00
2023-02-04T05:04:43.812Z,99.83
2023-02-04T05:07:10.285Z,100.00
2023-02-04T05:09:36.795Z,99.16
2023-02-04T05:12:03.350Z,99.34
2023-02-04T05:14:30.504Z,99.26
2023-02-04T05:16:56.977Z,98.49
2023-02-04T05:19:23.485Z,97.87
2023-02-04T05:21:49.938Z,97.22
2023-02-04T05:24:16.447Z,97.86
2023-02-04T05:26:43.006Z,98.94
2023-02-04T05:29:10.791Z,99.68
2023-02-04T05:31:37.470Z,100.00
2023-02-04T05:34:04.373Z,100.00
2023-02-04T05:36:31.616Z,100.00
2023-02-04T05:38:58.087Z,100.00
2023-02-04T05:41:24.529Z,100.00
2023-02-04T05:43:50.968Z,100.00
2023-02-04T05:46:17.481Z,100.00
2023-02-04T05:48:43.992Z,100.00
2023-02-04T05:51:10.748Z,100.00
2023-02-04T05:53:38.438Z,100.00
2023-02-04T05:56:05.234Z,100.00
2023-02-04T05:58:33.659Z,100.00
2023-02-04T06:01:04.499Z,100.00
2023-02-04T06:03:35.867Z,100.00
2023-02-04T06:06:03.462Z,100.00
2023-02-04T06:08:29.940Z,100.00
2023-02-04T06:10:56.477Z,100.00
2023-02-04T06:13:23.101Z,100.00
2023-02-04T06:15:49.579Z,100.00
2023-02-04T06:18:16.025Z,100.00
2023-02-04T06:20:42.554Z,100.00
2023-02-04T06:23:09.067Z,100.00
2023-02-04T06:25:36.651Z,100.00
2023-02-04T06:28:03.246Z,100.00
2023-02-04T06:30:29.921Z,100.00
2023-02-04T06:32:56.535Z,100.00
2023-02-04T06:35:23.010Z,100.00
2023-02-04T06:37:49.521Z,100.00
2023-02-04T06:40:16.108Z,100.00
2023-02-04T06:42:42.608Z,100.00
2023-02-04T06:45:09.296Z,100.00
2023-02-04T06:47:37.863Z,100.00
2023-02-04T06:50:04.464Z,100.00
2023-02-04T06:52:31.178Z,100.00
2023-02-04T06:54:58.129Z,100.00
2023-02-04T06:57:25.078Z,100.00
2023-02-04T06:59:51.813Z,100.00
2023-02-04T07:02:18.818Z,100.00
2023-02-04T07:04:47.692Z,100.00
2023-02-04T07:07:14.435Z,100.00
2023-02-04T07:09:40.948Z,100.00
2023-02-04T07:12:08.887Z,100.00
2023-02-04T07:14:42.480Z,100.00
2023-02-04T07:17:08.999Z,100.00
2023-02-04T07:19:40.222Z,100.00
2023-02-04T07:22:10.213Z,100.00
2023-02-04T07:24:38.189Z,100.00
2023-02-04T07:27:04.777Z,100.00
2023-02-04T07:29:31.248Z,100.00
2023-02-04T07:31:57.820Z,100.00
2023-02-04T07:34:24.405Z,100.00
2023-02-04T07:36:51.016Z,100.00
2023-02-04T07:39:17.902Z,100.00
2023-02-04T07:41:44.738Z,100.00
2023-02-04T07:44:11.666Z,100.00
2023-02-04T07:46:40.778Z,100.00
2023-02-04T07:49:10.468Z,100.00
2023-02-04T07:51:39.749Z,100.00
2023-02-04T07:54:08.651Z,100.00
2023-02-04T07:56:35.219Z,100.00
2023-02-04T07:59:01.745Z,100.00
2023-02-04T08:01:28.232Z,100.00
2023-02-04T08:03:54.761Z,100.00
2023-02-04T08:06:21.285Z,100.00
2023-02-04T08:08:47.816Z,100.00
2023-02-04T08:11:14.234Z,100.00
2023-02-04T08:13:40.709Z,100.00
2023-02-04T08:16:11.924Z,100.00
2023-02-04T08:18:41.342Z,100.00
2023-02-04T08:21:10.525Z,100.00
2023-02-04T08:23:41.734Z,100.00
2023-02-04T08:26:12.585Z,100.00
2023-02-04T08:28:39.203Z,100.00
2023-02-04T08:31:11.904Z,100.00
2023-02-04T08:33:39.802Z,100.00
2023-02-04T08:36:08.547Z,100.00
2023-02-04T08:38:35.528Z,100.00
2023-02-04T08:41:02.841Z,100.00
2023-02-04T08:43:29.321Z,100.00
2023-02-04T08:45:55.855Z,100.00
2023-02-04T08:48:22.381Z,100.00
2023-02-04T08:50:48.876Z,100.00
2023-02-04T08:53:15.461Z,100.00
2023-02-04T08:55:44.813Z,100.00
2023-02-04T08:58:12.496Z,100.00
2023-02-04T09:00:39.113Z,100.00
2023-02-04T09:03:08.508Z,100.00
2023-02-04T09:05:34.965Z,100.00
2023-02-04T09:08:01.588Z,100.00
2023-02-04T09:10:28.046Z,100.00
2023-02-04T09:12:56.114Z,100.00
2023-02-04T09:15:25.814Z,100.00
2023-02-04T09:18:04.415Z,100.00
2023-02-04T09:20:31.149Z,100.00
2023-02-04T09:22:57.815Z,100.00
2023-02-04T09:25:24.321Z,100.00
2023-02-04T09:27:50.841Z,100.00
2023-02-04T09:30:18.949Z,100.00
2023-02-04T09:32:45.413Z,100.00
2023-02-04T09:35:11.865Z,100.00
2023-02-04T09:37:41.293Z,100.00
2023-02-04T09:40:17.040Z,100.00
2023-02-04T09:42:46.968Z,100.00
2023-02-04T09:45:35.257Z,100.00
2023-02-04T09:48:04.345Z,100.00
2023-02-04T09:50:32.785Z,100.00
2023-02-04T09:53:04.129Z,100.00
2023-02-04T09:55:33.901Z,100.00
2023-02-04T09:58:00.728Z,100.00
2023-02-04T10:00:30.592Z,100.00
2023-02-04T10:03:00.129Z,100.00
2023-02-04T10:05:33.401Z,100.00
2023-02-04T10:08:00.499Z,100.00
2023-02-04T10:10:27.803Z,100.00
2023-02-04T10:12:58.864Z,100.00
2023-02-04T10:15:26.037Z,100.00
2023-02-04T10:17:57.753Z,100.00
2023-02-04T10:20:25.602Z,100.00
2023-02-04T10:22:54.616Z,100.00
2023-02-04T10:25:24.078Z,100.00
2023-02-04T10:27:50.860Z,100.00
2023-02-04T10:30:24.030Z,100.00
2023-02-04T10:32:51.711Z,100.00
2023-02-04T10:35:20.619Z,100.00
2023-02-04T10:37:51.114Z,100.00
2023-02-04T10:40:32.897Z,100.00
2023-02-04T10:43:00.199Z,100.00
2023-02-04T10:45:30.329Z,100.00
2023-02-04T10:47:59.280Z,100.00
2023-02-04T10:50:27.496Z,100.00
2023-02-04T10:53:16.460Z,100.00
2023-02-04T10:55:47.785Z,100.00
2023-02-04T10:58:20.634Z,100.00
2023-02-04T11:00:48.140Z,100.00
2023-02-04T11:03:28.763Z,100.00
2023-02-04T11:06:00.947Z,100.00
2023-02-04T11:08:39.098Z,100.00
2023-02-04T11:11:17.678Z,100.00
2023-02-04T11:13:50.548Z,100.00
2023-02-04T11:16:23.501Z,100.00
2023-02-04T11:18:58.541Z,100.00
2023-02-04T11:21:33.942Z,100.00
2023-02-04T11:24:12.509Z,100.00
2023-02-04T11:26:41.626Z,100.00
2023-02-04T11:29:26.862Z,100.00
2023-02-04T11:32:00.284Z,100.00
2023-02-04T11:34:29.742Z,100.00
2023-02-04T11:36:59.413Z,100.00
2023-02-04T11:39:32.108Z,100.00
2023-02-04T11:42:00.244Z,100.00
2023-02-04T11:44:27.204Z,100.00
2023-02-04T11:46:58.563Z,100.00
2023-02-04T11:49:27.086Z,100.00
2023-02-04T11:52:08.925Z,100.00
2023-02-04T11:54:39.041Z,100.00
2023-02-04T11:57:07.949Z,100.00
2023-02-04T11:59:34.443Z,100.00
2023-02-04T12:02:25.932Z,100.00
2023-02-04T12:04:57.411Z,100.00
2023-02-04T12:07:29.041Z,100.00
2023-02-04T12:09:58.568Z,100.00
2023-02-04T12:12:27.827Z,100.00
2023-02-04T12:15:13.574Z,100.00
2023-02-04T12:17:40.103Z,100.00
2023-02-04T12:20:08.291Z,100.00
2023-02-04T12:22:34.729Z,100.00
2023-02-04T12:25:01.211Z,100.00
2023-02-04T12:27:27.660Z,100.00
2023-02-04T12:29:54.122Z,100.00
2023-02-04T12:32:20.545Z,100.00
2023-02-04T12:34:46.969Z,100.00
2023-02-04T12:37:13.454Z,100.00
2023-02-04T12:39:39.987Z,100.00
2023-02-04T12:42:09.646Z,100.00
2023-02-04T12:44:37.845Z,100.00
2023-02-04T12:47:04.466Z,100.00
2023-02-04T12:49:30.940Z,100.00
2023-02-04T12:51:59.229Z,100.00
2023-02-04T12:54:25.805Z,100.00
2023-02-04T12:56:53.515Z,100.00
2023-02-04T12:59:20.003Z,100.00
2023-02-04T13:01:46.558Z,100.00
2023-02-04T13:04:13.087Z,100.00
2023-02-04T13:06:39.538Z,100.00
2023-02-04T13:09:09.370Z,100.00
2023-02-04T13:11:38.211Z,100.00
2023-02-04T13:14:04.710Z,100.00
2023-02-04T13:16:31.548Z,100.00
2023-02-04T13:18:58.043Z,100.00
2023-02-04T13:21:24.477Z,100.00
2023-02-04T13:23:51.027Z,100.00
2023-02-04T13:26:17.477Z,98.45
2023-02-04T13:28:43.946Z,98.69
2023-02-04T13:31:10.577Z,98.75
2023-02-04T13:33:39.130Z,98.37
2023-02-04T13:36:06.078Z,97.05
2023-02-04T13:38:32.649Z,96.07
2023-02-04T13:40:59.180Z,96.47
2023-02-04T13:43:25.895Z,98.16
2023-02-04T13:45:52.443Z,98.58
2023-02-04T13:48:18.942Z,99.71
2023-02-04T13:50:45.632Z,95.96
2023-02-04T13:53:12.096Z,94.60
2023-02-04T13:55:38.579Z,94.22
2023-02-04T13:58:05.273Z,94.67
2023-02-04T14:00:32.218Z,96.25
2023-02-04T14:02:58.956Z,97.19
2023-02-04T14:05:25.538Z,98.65
2023-02-04T14:07:52.132Z,100.00
2023-02-04T14:10:19.098Z,100.00
2023-02-04T14:12:45.836Z,100.00
2023-02-04T14:15:12.298Z,100.00
2023-02-04T14:17:41.587Z,100.00
2023-02-04T14:20:16.131Z,100.00
2023-02-04T14:22:42.950Z,100.00
2023-02-04T14:25:12.459Z,100.00
2023-02-04T14:27:42.340Z,100.00
2023-02-04T14:30:21.967Z,100.00
2023-02-04T14:32:48.885Z,100.00
2023-02-04T14:35:16.520Z,100.00
2023-02-04T14:37:46.941Z,100.00
2023-02-04T14:40:14.995Z,100.00
2023-02-04T14:42:44.713Z,100.00
2023-02-04T14:45:15.231Z,100.00
2023-02-04T14:47:49.232Z,100.00
2023-02-04T14:50:16.773Z,100.00
2023-02-04T14:52:43.276Z,100.00
2023-02-04T14:55:14.396Z,100.00
2023-02-04T14:57:45.070Z,100.00
2023-02-04T15:00:14.839Z,100.00
2023-02-04T15:02:42.567Z,100.00
2023-02-04T15:05:12.332Z,100.00
2023-02-04T15:07:41.331Z,100.00
2023-02-04T15:10:10.289Z,100.00
2023-02-04T15:12:36.930Z,100.00
2023-02-04T15:15:04.062Z,100.00
2023-02-04T15:17:30.526Z,100.00
2023-02-04T15:19:56.971Z,100.00
2023-02-04T15:22:23.420Z,100.00
2023-02-04T15:24:50.014Z,100.00
2023-02-04T15:27:16.562Z,100.00
2023-02-04T15:29:43.089Z,100.00
2023-02-04T15:32:13.454Z,100.00
2023-02-04T15:34:42.056Z,100.00
2023-02-04T15:37:13.652Z,100.00
2023-02-04T15:39:44.273Z,100.00
2023-02-04T15:42:14.457Z,100.00
2023-02-04T15:44:44.540Z,100.00
2023-02-04T15:47:12.743Z,100.00
2023-02-04T15:49:39.197Z,100.00
2023-02-04T15:52:07.127Z,100.00
2023-02-04T15:54:38.290Z,100.00
2023-02-04T15:57:04.722Z,100.00
2023-02-04T15:59:31.198Z,100.00
2023-02-04T16:01:57.708Z,100.00
2023-02-04T16:04:24.188Z,100.00
2023-02-04T16:06:58.480Z,100.00
2023-02-04T16:09:26.006Z,100.00
2023-02-04T16:11:52.498Z,100.00
2023-02-04T16:14:18.989Z,100.00
2023-02-04T16:16:45.518Z,100.00
2023-02-04T16:19:14.938Z,100.00
2023-02-04T16:21:44.182Z,100.00
2023-02-04T16:24:16.114Z,100.00
2023-02-04T16:26:42.857Z,100.00
2023-02-04T16:29:09.427Z,100.00
2023-02-04T16:31:35.934Z,100.00
2023-02-04T16:34:05.789Z,100.00
2023-02-04T16:36:32.353Z,100.00
2023-02-04T16:38:59.496Z,100.00
2023-02-04T16:41:26.171Z,100.00
2023-02-04T16:43:52.724Z,100.00
2023-02-04T16:46:19.301Z,100.00
2023-02-04T16:48:45.845Z,100.00
2023-02-04T16:51:13.044Z,100.00
2023-02-04T16:53:39.611Z,100.00
2023-02-04T16:56:07.014Z,100.00
2023-02-04T16:58:33.520Z,100.00
2023-02-04T17:01:00.019Z,100.00
2023-02-04T17:03:28.060Z,100.00
2023-02-04T17:05:56.117Z,100.00
2023-02-04T17:08:22.659Z,100.00
2023-02-04T17:11:08.350Z,100.00
2023-02-04T17:13:34.899Z,100.00
2023-02-04T17:16:01.949Z,100.00
2023-02-04T17:18:29.991Z,100.00
2023-02-04T17:20:57.560Z,100.00
2023-02-04T17:23:24.066Z,100.00
2023-02-04T17:25:50.599Z,100.00
2023-02-04T17:28:17.491Z,100.00
2023-02-04T17:30:46.879Z,100.00
2023-02-04T17:33:17.475Z,100.00
2023-02-04T17:35:46.743Z,100.00
2023-02-04T17:38:16.016Z,100.00
2023-02-04T17:40:46.430Z,100.00
2023-02-04T17:43:13.880Z,100.00
2023-02-04T17:45:40.339Z,100.00
2023-02-04T17:48:06.894Z,100.00
2023-02-04T17:53:08.967Z,100.00
2023-02-04T17:55:37.875Z,100.00
2023-02-04T17:58:15.672Z,100.00
2023-02-04T18:00:45.936Z,100.00
2023-02-04T18:03:23.847Z,100.00
2023-02-04T18:05:52.532Z,100.00
2023-02-04T18:08:22.241Z,100.00
2023-02-04T18:10:51.847Z,100.00
2023-02-04T18:13:18.352Z,100.00
2023-02-04T18:15:57.482Z,100.00
2023-02-04T18:18:37.738Z,100.00
2023-02-04T18:21:43.112Z,100.00
2023-02-04T18:24:09.840Z,100.00
2023-02-04T18:26:49.650Z,100.00
2023-02-04T18:29:56.683Z,100.00
2023-02-04T18:32:48.933Z,100.00
2023-02-04T18:35:40.464Z,100.00
2023-02-04T18:38:21.359Z,100.00
2023-02-04T18:41:00.228Z,100.00
2023-02-04T18:43:29.794Z,100.00
2023-02-04T18:46:07.547Z,100.00
2023-02-04T18:49:25.617Z,100.00
2023-02-04T18:51:59.362Z,100.00
2023-02-04T18:54:51.192Z,100.00
2023-02-04T18:57:29.208Z,100.00
2023-02-04T19:00:11.146Z,100.00
2023-02-04T19:02:53.881Z,100.00
2023-02-04T19:05:32.317Z,100.00
2023-02-04T19:08:21.230Z,100.00
2023-02-04T19:10:52.468Z,100.00
2023-02-04T19:13:35.918Z,100.00
2023-02-04T19:16:23.964Z,100.00
2023-02-04T19:18:52.660Z,100.00
2023-02-04T19:21:27.135Z,100.00
2023-02-04T19:24:14.249Z,100.00
2023-02-04T19:26:57.439Z,100.00
2023-02-04T19:29:30.250Z,100.00
2023-02-04T19:32:25.707Z,100.00
2023-02-04T19:34:53.187Z,100.00
2023-02-04T19:37:24.978Z,100.00
2023-02-04T19:39:51.673Z,100.00
2023-02-04T19:42:34.472Z,100.00
2023-02-04T19:45:12.731Z,100.00
2023-02-04T19:47:44.394Z,100.00
2023-02-04T19:50:13.933Z,100.00
2023-02-04T19:52:47.497Z,100.00
2023-02-04T19:55:16.738Z,100.00
2023-02-04T19:58:22.602Z,100.00
2023-02-04T20:01:04.842Z,100.00
2023-02-04T20:03:40.183Z,100.00
2023-02-04T20:06:09.727Z,100.00
2023-02-04T20:08:46.573Z,100.00
2023-02-04T20:11:31.095Z,100.00
2023-02-04T20:14:07.963Z,100.00
2023-02-04T20:16:47.027Z,100.00
2023-02-04T20:19:27.159Z,100.00
2023-02-04T20:22:15.245Z,100.00
2023-02-04T20:24:42.703Z,100.00
2023-02-04T20:27:16.918Z,100.00
2023-02-04T20:29:43.539Z,100.00
2023-02-04T20:32:26.292Z,100.00
2023-02-04T20:34:58.638Z,100.00
2023-02-04T20:37:43.666Z,100.00
2023-02-04T20:40:37.530Z,100.00
2023-02-04T20:43:12.259Z,100.00
2023-02-04T20:45:53.221Z,100.00
2023-02-04T20:48:26.325Z,100.00
2023-02-04T20:50:54.708Z,100.00
2023-02-04T20:53:28.099Z,100.00
2023-02-04T20:56:05.128Z,100.00
2023-02-04T20:58:37.571Z,100.00
2023-02-04T21:01:29.048Z,100.00
2023-02-04T21:03:57.709Z,100.00
2023-02-04T21:06:30.063Z,100.00
2023-02-04T21:08:59.052Z,100.00
2023-02-04T21:11:26.561Z,100.00
2023-02-04T21:13:54.433Z,100.00
2023-02-04T21:16:23.916Z,100.00
2023-02-04T21:18:51.114Z,100.00
2023-02-04T21:21:17.856Z,100.00
2023-02-04T21:23:44.312Z,100.00
2023-02-04T21:26:10.782Z,100.00
2023-02-04T21:28:37.298Z,100.00
2023-02-04T21:31:04.234Z,100.00
2023-02-04T21:33:30.813Z,100.00
2023-02-04T21:35:57.409Z,100.00
2023-02-04T21:38:23.918Z,100.00
2023-02-04T21:40:55.470Z,100.00
2023-02-04T21:43:22.592Z,100.00
2023-02-04T21:45:49.024Z,100.00
2023-02-04T21:48:15.452Z,100.00
2023-02-04T21:50:44.145Z,100.00
2023-02-04T21:53:10.939Z,100.00
2023-02-04T21:55:37.811Z,100.00
2023-02-04T21:58:05.415Z,100.00
2023-02-04T22:00:32.164Z,100.00
2023-02-04T22:02:58.736Z,100.00
2023-02-04T22:05:25.533Z,100.00
2023-02-04T22:07:55.348Z,100.00
2023-02-04T22:10:24.960Z,100.00
2023-02-04T22:12:54.146Z,100.00
2023-02-04T22:15:24.638Z,100.00
2023-02-04T22:17:56.290Z,100.00
2023-02-04T22:20:25.579Z,100.00
2023-02-04T22:22:59.678Z,100.00
2023-02-04T22:25:28.241Z,100.00
2023-02-04T22:27:57.544Z,100.00
2023-02-04T22:30:27.159Z,100.00
2023-02-04T22:32:56.611Z,100.00
2023-02-04T22:35:25.577Z,100.00
2023-02-04T22:37:52.065Z,100.00
2023-02-04T22:40:18.787Z,100.00
2023-02-04T22:42:45.449Z,100.00
2023-02-04T22:45:12.960Z,100.00
2023-02-04T22:47:39.471Z,100.00
2023-02-04T22:50:06.281Z,100.00
2023-02-04T22:52:32.968Z,100.00
2023-02-04T22:54:59.544Z,100.00
2023-02-04T22:57:28.890Z,100.00
2023-02-04T22:59:56.886Z,100.00
2023-02-04T23:02:23.329Z,100.00
2023-02-04T23:04:49.794Z,100.00
2023-02-04T23:07:16.313Z,100.00
2023-02-04T23:09:42.843Z,100.00
2023-02-04T23:12:15.453Z,100.00
2023-02-04T23:14:44.223Z,100.00
2023-02-04T23:17:11.496Z,100.00
2023-02-04T23:19:38.321Z,100.00
2023-02-04T23:22:06.150Z,100.00
2023-02-04T23:24:33.275Z,100.00
2023-02-04T23:27:00.240Z,100.00
2023-02-04T23:29:32.260Z,100.00
2023-02-04T23:31:59.024Z,100.00
2023-02-04T23:34:28.304Z,100.00
2023-02-04T23:36:54.792Z,100.00
2023-02-04T23:39:21.904Z,100.00
2023-02-04T23:41:49.119Z,100.00
2023-02-04T23:44:15.602Z,100.00
2023-02-04T23:46:42.156Z,100.00
2023-02-04T23:49:09.235Z,100.00
2023-02-04T23:51:36.078Z,100.00
2023-02-04T23:54:02.738Z,100.00
2023-02-04T23:56:30.298Z,100.00
2023-02-04T23:58:59.285Z,100.00
